sensor_id;sensor_type;location;lat;lon;timestamp;temperature;humidity
13880;DHT22;7010;48.200;16.332;2023-02-22T00:02:05;11.70;99.90
13880;DHT22;7010;48.200;16.332;2023-02-22T00:04:51;11.70;99.90
13880;DHT22;7010;48.200;16.332;2023-02-22T00:07:20;11.70;99.90
13880;DHT22;7010;48.200;16.332;2023-02-22T00:09:49;11.70;99.90
13880;DHT22;7010;48.200;16.332;2023-02-22T00:12:17;11.70;99.90
13880;DHT22;7010;48.200;16.332;2023-02-22T00:14:47;11.70;99.90
13880;DHT22;7010;48.200;16.332;2023-02-22T00:17:17;11.70;99.90
13880;DHT22;7010;48.200;16.332;2023-02-22T00:19:48;11.70;99.90
13880;DHT22;7010;48.200;16.332;2023-02-22T00:22:16;11.70;99.90
13880;DHT22;7010;48.200;16.332;2023-02-22T00:24:46;11.70;99.90
13880;DHT22;7010;48.200;16.332;2023-02-22T00:27:16;11.70;99.90
13880;DHT22;7010;48.200;16.332;2023-02-22T00:29:44;11.60;99.90
13880;DHT22;7010;48.200;16.332;2023-02-22T00:32:15;11.60;99.90
13880;DHT22;7010;48.200;16.332;2023-02-22T00:34:43;11.70;99.90
13880;DHT22;7010;48.200;16.332;2023-02-22T00:37:11;11.70;99.90
13880;DHT22;7010;48.200;16.332;2023-02-22T00:39:40;11.70;99.90
13880;DHT22;7010;48.200;16.332;2023-02-22T00:42:08;11.70;99.90
13880;DHT22;7010;48.200;16.332;2023-02-22T00:44:36;11.70;99.90
13880;DHT22;7010;48.200;16.332;2023-02-22T00:47:05;11.60;99.90
13880;DHT22;7010;48.200;16.332;2023-02-22T00:49:36;11.60;99.90
13880;DHT22;7010;48.200;16.332;2023-02-22T00:52:04;11.60;99.90
13880;DHT22;7010;48.200;16.332;2023-02-22T00:54:33;11.60;99.90
13880;DHT22;7010;48.200;16.332;2023-02-22T00:57:02;11.60;99.90
13880;DHT22;7010;48.200;16.332;2023-02-22T00:59:31;11.60;99.90
13880;DHT22;7010;48.200;16.332;2023-02-22T01:01:59;11.60;99.90
13880;DHT22;7010;48.200;16.332;2023-02-22T01:04:27;11.60;99.90
13880;DHT22;7010;48.200;16.332;2023-02-22T01:06:57;11.60;99.90
13880;DHT22;7010;48.200;16.332;2023-02-22T01:09:26;11.60;99.90
13880;DHT22;7010;48.200;16.332;2023-02-22T01:11:55;11.60;99.90
13880;DHT22;7010;48.200;16.332;2023-02-22T01:14:25;11.60;99.90
13880;DHT22;7010;48.200;16.332;2023-02-22T01:16:54;11.60;99.90
13880;DHT22;7010;48.200;16.332;2023-02-22T01:19:23;11.60;99.90
13880;DHT22;7010;48.200;16.332;2023-02-22T01:21:51;11.60;99.90
13880;DHT22;7010;48.200;16.332;2023-02-22T01:24:21;11.60;99.90
13880;DHT22;7010;48.200;16.332;2023-02-22T01:26:51;11.60;99.90
13880;DHT22;7010;48.200;16.332;2023-02-22T01:29:19;11.60;99.90
13880;DHT22;7010;48.200;16.332;2023-02-22T01:31:53;11.60;99.90
13880;DHT22;7010;48.200;16.332;2023-02-22T01:34:22;11.60;99.90
13880;DHT22;7010;48.200;16.332;2023-02-22T01:36:51;11.60;99.90
13880;DHT22;7010;48.200;16.332;2023-02-22T01:39:21;11.60;99.90
13880;DHT22;7010;48.200;16.332;2023-02-22T01:41:50;11.60;99.90
13880;DHT22;7010;48.200;16.332;2023-02-22T01:44:25;11.60;99.90
13880;DHT22;7010;48.200;16.332;2023-02-22T01:46:54;11.60;99.90
13880;DHT22;7010;48.200;16.332;2023-02-22T01:49:23;11.60;99.90
13880;DHT22;7010;48.200;16.332;2023-02-22T01:51:53;11.60;99.90
13880;DHT22;7010;48.200;16.332;2023-02-22T01:54:27;11.60;99.90
13880;DHT22;7010;48.200;16.332;2023-02-22T01:57:03;11.60;99.90
13880;DHT22;7010;48.200;16.332;2023-02-22T01:59:36;11.60;99.90
13880;DHT22;7010;48.200;16.332;2023-02-22T02:02:05;11.60;99.90
13880;DHT22;7010;48.200;16.332;2023-02-22T02:04:34;11.60;99.90
13880;DHT22;7010;48.200;16.332;2023-02-22T02:07:05;11.60;99.90
13880;DHT22;7010;48.200;16.332;2023-02-22T02:09:43;11.60;99.90
13880;DHT22;7010;48.200;16.332;2023-02-22T02:12:16;11.60;99.90
13880;DHT22;7010;48.200;16.332;2023-02-22T02:14:45;11.60;99.90
13880;DHT22;7010;48.200;16.332;2023-02-22T02:17:16;11.60;99.90
13880;DHT22;7010;48.200;16.332;2023-02-22T02:19:51;11.60;99.90
13880;DHT22;7010;48.200;16.332;2023-02-22T02:22:32;11.60;99.90
13880;DHT22;7010;48.200;16.332;2023-02-22T02:25:21;11.60;99.90
13880;DHT22;7010;48.200;16.332;2023-02-22T02:28:19;11.60;99.90
13880;DHT22;7010;48.200;16.332;2023-02-22T02:31:25;11.60;99.90
13880;DHT22;7010;48.200;16.332;2023-02-22T02:34:04;11.60;99.90
13880;DHT22;7010;48.200;16.332;2023-02-22T02:36:42;11.60;99.90
13880;DHT22;7010;48.200;16.332;2023-02-22T02:39:19;11.60;99.90
13880;DHT22;7010;48.200;16.332;2023-02-22T02:41:51;11.60;99.90
13880;DHT22;7010;48.200;16.332;2023-02-22T02:44:25;11.60;99.90
13880;DHT22;7010;48.200;16.332;2023-02-22T02:46:57;11.60;99.90
13880;DHT22;7010;48.200;16.332;2023-02-22T02:49:30;11.50;99.90
13880;DHT22;7010;48.200;16.332;2023-02-22T02:52:02;11.50;99.90
13880;DHT22;7010;48.200;16.332;2023-02-22T02:54:32;11.50;99.90
13880;DHT22;7010;48.200;16.332;2023-02-22T02:57:03;11.50;99.90
13880;DHT22;7010;48.200;16.332;2023-02-22T02:59:33;11.50;99.90
13880;DHT22;7010;48.200;16.332;2023-02-22T03:02:22;11.50;99.90
13880;DHT22;7010;48.200;16.332;2023-02-22T03:05:10;11.50;99.90
13880;DHT22;7010;48.200;16.332;2023-02-22T03:07:48;11.50;99.90
13880;DHT22;7010;48.200;16.332;2023-02-22T03:10:37;11.50;99.90
13880;DHT22;7010;48.200;16.332;2023-02-22T03:13:14;11.50;99.90
13880;DHT22;7010;48.200;16.332;2023-02-22T03:15:51;11.50;99.90
13880;DHT22;7010;48.200;16.332;2023-02-22T03:18:25;11.50;99.90
13880;DHT22;7010;48.200;16.332;2023-02-22T03:21:00;11.50;99.90
13880;DHT22;7010;48.200;16.332;2023-02-22T03:23:36;11.50;99.90
13880;DHT22;7010;48.200;16.332;2023-02-22T03:26:09;11.50;99.90
13880;DHT22;7010;48.200;16.332;2023-02-22T03:28:40;11.50;99.90
13880;DHT22;7010;48.200;16.332;2023-02-22T03:31:13;11.50;99.90
13880;DHT22;7010;48.200;16.332;2023-02-22T03:33:45;11.50;99.90
13880;DHT22;7010;48.200;16.332;2023-02-22T03:36:19;11.50;99.90
13880;DHT22;7010;48.200;16.332;2023-02-22T03:38:52;11.50;99.90
13880;DHT22;7010;48.200;16.332;2023-02-22T03:41:23;11.50;99.90
13880;DHT22;7010;48.200;16.332;2023-02-22T03:43:56;11.50;99.90
13880;DHT22;7010;48.200;16.332;2023-02-22T03:46:26;11.40;99.90
13880;DHT22;7010;48.200;16.332;2023-02-22T03:48:59;11.50;99.90
13880;DHT22;7010;48.200;16.332;2023-02-22T03:51:31;11.40;99.90
13880;DHT22;7010;48.200;16.332;2023-02-22T03:54:00;11.40;99.90
13880;DHT22;7010;48.200;16.332;2023-02-22T03:56:31;11.40;99.90
13880;DHT22;7010;48.200;16.332;2023-02-22T03:59:04;11.40;99.90
13880;DHT22;7010;48.200;16.332;2023-02-22T04:01:33;11.40;99.90
13880;DHT22;7010;48.200;16.332;2023-02-22T04:04:01;11.40;99.90
13880;DHT22;7010;48.200;16.332;2023-02-22T04:06:32;11.30;99.90
13880;DHT22;7010;48.200;16.332;2023-02-22T04:09:00;11.30;99.90
13880;DHT22;7010;48.200;16.332;2023-02-22T04:11:29;11.30;99.90
13880;DHT22;7010;48.200;16.332;2023-02-22T04:13:57;11.30;99.90
13880;DHT22;7010;48.200;16.332;2023-02-22T04:16:26;11.30;99.90
13880;DHT22;7010;48.200;16.332;2023-02-22T04:18:54;11.30;99.90
13880;DHT22;7010;48.200;16.332;2023-02-22T04:21:23;11.30;99.90
13880;DHT22;7010;48.200;16.332;2023-02-22T04:23:52;11.30;99.90
13880;DHT22;7010;48.200;16.332;2023-02-22T04:26:21;11.30;99.90
13880;DHT22;7010;48.200;16.332;2023-02-22T04:28:49;11.30;99.90
13880;DHT22;7010;48.200;16.332;2023-02-22T04:31:17;11.30;99.90
13880;DHT22;7010;48.200;16.332;2023-02-22T04:33:46;11.30;99.90
13880;DHT22;7010;48.200;16.332;2023-02-22T04:36:15;11.30;99.90
13880;DHT22;7010;48.200;16.332;2023-02-22T04:38:43;11.30;99.90
13880;DHT22;7010;48.200;16.332;2023-02-22T04:41:13;11.20;99.90
13880;DHT22;7010;48.200;16.332;2023-02-22T04:43:44;11.20;99.90
13880;DHT22;7010;48.200;16.332;2023-02-22T04:46:12;11.20;99.90
13880;DHT22;7010;48.200;16.332;2023-02-22T04:48:41;11.20;99.90
13880;DHT22;7010;48.200;16.332;2023-02-22T04:51:10;11.20;99.90
13880;DHT22;7010;48.200;16.332;2023-02-22T04:53:38;11.20;99.90
13880;DHT22;7010;48.200;16.332;2023-02-22T04:56:07;11.20;99.90
13880;DHT22;7010;48.200;16.332;2023-02-22T04:58:37;11.20;99.90
13880;DHT22;7010;48.200;16.332;2023-02-22T05:01:05;11.10;99.90
13880;DHT22;7010;48.200;16.332;2023-02-22T05:03:36;11.10;99.90
13880;DHT22;7010;48.200;16.332;2023-02-22T05:06:05;11.10;99.90
13880;DHT22;7010;48.200;16.332;2023-02-22T05:08:34;11.10;99.90
13880;DHT22;7010;48.200;16.332;2023-02-22T05:11:03;11.00;99.90
13880;DHT22;7010;48.200;16.332;2023-02-22T05:13:31;11.00;99.90
13880;DHT22;7010;48.200;16.332;2023-02-22T05:16:01;11.00;99.90
13880;DHT22;7010;48.200;16.332;2023-02-22T05:18:30;11.10;99.90
13880;DHT22;7010;48.200;16.332;2023-02-22T05:20:58;11.00;99.90
13880;DHT22;7010;48.200;16.332;2023-02-22T05:23:26;11.00;99.90
13880;DHT22;7010;48.200;16.332;2023-02-22T05:25:55;11.00;99.90
13880;DHT22;7010;48.200;16.332;2023-02-22T05:28:24;11.00;99.90
13880;DHT22;7010;48.200;16.332;2023-02-22T05:30:53;11.00;99.90
13880;DHT22;7010;48.200;16.332;2023-02-22T05:33:23;11.00;99.90
13880;DHT22;7010;48.200;16.332;2023-02-22T05:35:51;11.00;99.90
13880;DHT22;7010;48.200;16.332;2023-02-22T05:38:21;11.00;99.90
13880;DHT22;7010;48.200;16.332;2023-02-22T05:40:50;11.00;99.90
13880;DHT22;7010;48.200;16.332;2023-02-22T05:43:20;11.00;99.90
13880;DHT22;7010;48.200;16.332;2023-02-22T05:45:48;11.00;99.90
13880;DHT22;7010;48.200;16.332;2023-02-22T05:48:17;11.00;99.90
13880;DHT22;7010;48.200;16.332;2023-02-22T05:50:49;11.00;99.90
13880;DHT22;7010;48.200;16.332;2023-02-22T05:53:18;11.00;99.90
13880;DHT22;7010;48.200;16.332;2023-02-22T05:55:46;11.00;99.90
13880;DHT22;7010;48.200;16.332;2023-02-22T05:58:14;11.00;99.90
13880;DHT22;7010;48.200;16.332;2023-02-22T06:00:42;11.00;99.90
13880;DHT22;7010;48.200;16.332;2023-02-22T06:03:11;11.00;99.90
13880;DHT22;7010;48.200;16.332;2023-02-22T06:05:39;11.00;99.90
13880;DHT22;7010;48.200;16.332;2023-02-22T06:08:09;11.00;99.90
13880;DHT22;7010;48.200;16.332;2023-02-22T06:10:38;11.00;99.90
13880;DHT22;7010;48.200;16.332;2023-02-22T06:13:06;11.00;99.90
13880;DHT22;7010;48.200;16.332;2023-02-22T06:15:34;11.10;99.90
13880;DHT22;7010;48.200;16.332;2023-02-22T06:18:03;11.10;99.90
13880;DHT22;7010;48.200;16.332;2023-02-22T06:20:31;11.10;99.90
13880;DHT22;7010;48.200;16.332;2023-02-22T06:23:01;11.10;99.90
13880;DHT22;7010;48.200;16.332;2023-02-22T06:25:31;11.10;99.90
13880;DHT22;7010;48.200;16.332;2023-02-22T06:28:05;11.10;99.90
13880;DHT22;7010;48.200;16.332;2023-02-22T06:30:33;11.10;99.90
13880;DHT22;7010;48.200;16.332;2023-02-22T06:33:01;11.10;99.90
13880;DHT22;7010;48.200;16.332;2023-02-22T06:35:30;11.10;99.90
13880;DHT22;7010;48.200;16.332;2023-02-22T06:37:58;11.10;99.90
13880;DHT22;7010;48.200;16.332;2023-02-22T06:40:26;11.10;99.90
13880;DHT22;7010;48.200;16.332;2023-02-22T06:42:57;11.20;99.90
13880;DHT22;7010;48.200;16.332;2023-02-22T06:45:26;11.20;99.90
13880;DHT22;7010;48.200;16.332;2023-02-22T06:47:54;11.20;99.90
13880;DHT22;7010;48.200;16.332;2023-02-22T06:50:26;11.20;99.90
13880;DHT22;7010;48.200;16.332;2023-02-22T06:52:56;11.20;99.90
13880;DHT22;7010;48.200;16.332;2023-02-22T06:55:26;11.20;99.90
13880;DHT22;7010;48.200;16.332;2023-02-22T06:57:54;11.20;99.90
13880;DHT22;7010;48.200;16.332;2023-02-22T07:00:25;11.30;99.90
13880;DHT22;7010;48.200;16.332;2023-02-22T07:02:55;11.30;99.90
13880;DHT22;7010;48.200;16.332;2023-02-22T07:05:25;11.30;99.90
13880;DHT22;7010;48.200;16.332;2023-02-22T07:08:02;11.30;99.90
13880;DHT22;7010;48.200;16.332;2023-02-22T07:10:32;11.30;99.90
13880;DHT22;7010;48.200;16.332;2023-02-22T07:13:01;11.40;99.90
13880;DHT22;7010;48.200;16.332;2023-02-22T07:15:33;11.40;99.90
13880;DHT22;7010;48.200;16.332;2023-02-22T07:18:02;11.50;99.90
13880;DHT22;7010;48.200;16.332;2023-02-22T07:20:31;11.50;99.90
13880;DHT22;7010;48.200;16.332;2023-02-22T07:22:59;11.50;99.90
13880;DHT22;7010;48.200;16.332;2023-02-22T07:25:28;11.50;99.90
13880;DHT22;7010;48.200;16.332;2023-02-22T07:27:56;11.60;99.90
13880;DHT22;7010;48.200;16.332;2023-02-22T07:30:28;11.60;99.90
13880;DHT22;7010;48.200;16.332;2023-02-22T07:33:03;11.60;99.90
13880;DHT22;7010;48.200;16.332;2023-02-22T07:35:33;11.70;99.90
13880;DHT22;7010;48.200;16.332;2023-02-22T07:38:03;11.70;99.90
13880;DHT22;7010;48.200;16.332;2023-02-22T07:40:32;11.70;99.90
13880;DHT22;7010;48.200;16.332;2023-02-22T07:43:02;11.80;99.90
13880;DHT22;7010;48.200;16.332;2023-02-22T07:45:34;11.80;99.90
13880;DHT22;7010;48.200;16.332;2023-02-22T07:48:11;11.80;99.90
13880;DHT22;7010;48.200;16.332;2023-02-22T07:50:43;11.90;99.90
13880;DHT22;7010;48.200;16.332;2023-02-22T07:53:13;11.90;99.90
13880;DHT22;7010;48.200;16.332;2023-02-22T07:55:41;12.00;99.90
13880;DHT22;7010;48.200;16.332;2023-02-22T07:58:12;12.00;99.90
13880;DHT22;7010;48.200;16.332;2023-02-22T08:00:42;12.10;99.90
13880;DHT22;7010;48.200;16.332;2023-02-22T08:03:19;12.20;99.90
13880;DHT22;7010;48.200;16.332;2023-02-22T08:05:49;12.30;99.90
13880;DHT22;7010;48.200;16.332;2023-02-22T08:08:17;12.30;99.90
13880;DHT22;7010;48.200;16.332;2023-02-22T08:10:46;12.40;99.90
13880;DHT22;7010;48.200;16.332;2023-02-22T08:13:16;12.50;99.90
13880;DHT22;7010;48.200;16.332;2023-02-22T08:15:44;12.50;99.90
13880;DHT22;7010;48.200;16.332;2023-02-22T08:18:18;12.50;99.90
13880;DHT22;7010;48.200;16.332;2023-02-22T08:20:48;12.60;99.90
13880;DHT22;7010;48.200;16.332;2023-02-22T08:23:19;12.70;99.90
13880;DHT22;7010;48.200;16.332;2023-02-22T08:25:55;12.80;99.90
13880;DHT22;7010;48.200;16.332;2023-02-22T08:28:24;12.80;99.90
13880;DHT22;7010;48.200;16.332;2023-02-22T08:30:54;12.80;99.90
13880;DHT22;7010;48.200;16.332;2023-02-22T08:33:26;12.90;99.90
13880;DHT22;7010;48.200;16.332;2023-02-22T08:35:54;13.00;99.90
13880;DHT22;7010;48.200;16.332;2023-02-22T08:38:25;13.00;99.90
13880;DHT22;7010;48.200;16.332;2023-02-22T08:40:55;12.90;99.90
13880;DHT22;7010;48.200;16.332;2023-02-22T08:43:23;13.00;99.90
13880;DHT22;7010;48.200;16.332;2023-02-22T08:45:52;13.20;99.90
13880;DHT22;7010;48.200;16.332;2023-02-22T08:48:25;13.20;99.90
13880;DHT22;7010;48.200;16.332;2023-02-22T08:50:53;13.30;99.90
13880;DHT22;7010;48.200;16.332;2023-02-22T08:53:26;13.30;99.90
13880;DHT22;7010;48.200;16.332;2023-02-22T08:55:57;13.40;99.90
13880;DHT22;7010;48.200;16.332;2023-02-22T08:58:25;13.50;99.90
13880;DHT22;7010;48.200;16.332;2023-02-22T09:00:53;13.60;99.90
13880;DHT22;7010;48.200;16.332;2023-02-22T09:03:22;13.70;99.90
13880;DHT22;7010;48.200;16.332;2023-02-22T09:05:51;13.70;99.90
13880;DHT22;7010;48.200;16.332;2023-02-22T09:08:20;13.80;99.90
13880;DHT22;7010;48.200;16.332;2023-02-22T09:10:49;13.90;99.90
13880;DHT22;7010;48.200;16.332;2023-02-22T09:13:17;13.90;99.90
13880;DHT22;7010;48.200;16.332;2023-02-22T09:15:46;14.00;99.90
13880;DHT22;7010;48.200;16.332;2023-02-22T09:18:14;14.10;99.90
13880;DHT22;7010;48.200;16.332;2023-02-22T09:20:43;14.30;99.90
13880;DHT22;7010;48.200;16.332;2023-02-22T09:23:13;14.30;99.90
13880;DHT22;7010;48.200;16.332;2023-02-22T09:25:42;14.40;99.90
13880;DHT22;7010;48.200;16.332;2023-02-22T09:28:10;14.60;99.90
13880;DHT22;7010;48.200;16.332;2023-02-22T09:30:38;14.80;99.90
13880;DHT22;7010;48.200;16.332;2023-02-22T09:33:09;14.80;99.90
13880;DHT22;7010;48.200;16.332;2023-02-22T09:35:39;14.70;99.90
13880;DHT22;7010;48.200;16.332;2023-02-22T09:38:14;14.90;99.90
13880;DHT22;7010;48.200;16.332;2023-02-22T09:40:45;15.00;99.90
13880;DHT22;7010;48.200;16.332;2023-02-22T09:43:29;15.10;99.90
13880;DHT22;7010;48.200;16.332;2023-02-22T09:46:12;15.20;99.90
13880;DHT22;7010;48.200;16.332;2023-02-22T09:48:55;15.20;99.90
13880;DHT22;7010;48.200;16.332;2023-02-22T09:51:27;15.20;99.90
13880;DHT22;7010;48.200;16.332;2023-02-22T09:54:00;15.20;99.90
13880;DHT22;7010;48.200;16.332;2023-02-22T09:56:30;15.30;99.90
13880;DHT22;7010;48.200;16.332;2023-02-22T09:59:02;15.40;99.90
13880;DHT22;7010;48.200;16.332;2023-02-22T10:01:37;15.30;99.90
13880;DHT22;7010;48.200;16.332;2023-02-22T10:04:12;15.40;99.90
13880;DHT22;7010;48.200;16.332;2023-02-22T10:06:58;15.70;99.90
13880;DHT22;7010;48.200;16.332;2023-02-22T10:09:35;16.00;99.90
13880;DHT22;7010;48.200;16.332;2023-02-22T10:12:12;16.20;99.90
13880;DHT22;7010;48.200;16.332;2023-02-22T10:14:51;16.40;99.90
13880;DHT22;7010;48.200;16.332;2023-02-22T10:17:29;16.60;99.90
13880;DHT22;7010;48.200;16.332;2023-02-22T10:20:09;16.80;99.90
13880;DHT22;7010;48.200;16.332;2023-02-22T10:22:49;17.10;99.90
13880;DHT22;7010;48.200;16.332;2023-02-22T10:25:24;17.10;99.90
13880;DHT22;7010;48.200;16.332;2023-02-22T10:27:56;17.30;99.90
13880;DHT22;7010;48.200;16.332;2023-02-22T10:30:31;17.50;99.90
13880;DHT22;7010;48.200;16.332;2023-02-22T10:33:07;17.40;99.90
13880;DHT22;7010;48.200;16.332;2023-02-22T10:35:38;17.40;99.90
13880;DHT22;7010;48.200;16.332;2023-02-22T10:38:15;17.30;99.90
13880;DHT22;7010;48.200;16.332;2023-02-22T10:40:49;17.20;99.90
13880;DHT22;7010;48.200;16.332;2023-02-22T10:43:18;17.30;99.90
13880;DHT22;7010;48.200;16.332;2023-02-22T10:45:47;17.10;99.90
13880;DHT22;7010;48.200;16.332;2023-02-22T10:48:18;17.40;99.90
13880;DHT22;7010;48.200;16.332;2023-02-22T10:50:47;17.40;99.90
13880;DHT22;7010;48.200;16.332;2023-02-22T10:53:16;17.50;99.90
13880;DHT22;7010;48.200;16.332;2023-02-22T10:56:05;17.70;99.90
13880;DHT22;7010;48.200;16.332;2023-02-22T10:58:42;18.40;99.90
13880;DHT22;7010;48.200;16.332;2023-02-22T11:01:19;19.30;99.90
13880;DHT22;7010;48.200;16.332;2023-02-22T11:03:56;20.10;99.90
13880;DHT22;7010;48.200;16.332;2023-02-22T11:06:25;19.90;99.10
13880;DHT22;7010;48.200;16.332;2023-02-22T11:09:04;19.60;98.50
13880;DHT22;7010;48.200;16.332;2023-02-22T11:11:39;19.50;98.80
13880;DHT22;7010;48.200;16.332;2023-02-22T11:14:08;19.60;98.50
13880;DHT22;7010;48.200;16.332;2023-02-22T11:16:39;20.00;98.80
13880;DHT22;7010;48.200;16.332;2023-02-22T11:19:16;20.60;98.00
13880;DHT22;7010;48.200;16.332;2023-02-22T11:21:47;20.80;96.60
13880;DHT22;7010;48.200;16.332;2023-02-22T11:24:19;21.00;96.00
13880;DHT22;7010;48.200;16.332;2023-02-22T11:26:53;21.10;96.00
13880;DHT22;7010;48.200;16.332;2023-02-22T11:29:26;21.10;94.90
13880;DHT22;7010;48.200;16.332;2023-02-22T11:32:00;21.30;94.60
13880;DHT22;7010;48.200;16.332;2023-02-22T11:34:34;21.20;93.80
13880;DHT22;7010;48.200;16.332;2023-02-22T11:37:26;21.50;93.70
13880;DHT22;7010;48.200;16.332;2023-02-22T11:40:17;21.70;92.90
13880;DHT22;7010;48.200;16.332;2023-02-22T11:43:05;21.50;92.40
13880;DHT22;7010;48.200;16.332;2023-02-22T11:45:38;20.90;92.50
13880;DHT22;7010;48.200;16.332;2023-02-22T11:48:22;20.40;93.10
13880;DHT22;7010;48.200;16.332;2023-02-22T11:51:01;19.90;94.20
13880;DHT22;7010;48.200;16.332;2023-02-22T11:53:52;19.90;94.50
13880;DHT22;7010;48.200;16.332;2023-02-22T11:56:25;20.30;94.00
13880;DHT22;7010;48.200;16.332;2023-02-22T11:59:14;20.90;93.60
13880;DHT22;7010;48.200;16.332;2023-02-22T12:01:51;20.50;93.10
13880;DHT22;7010;48.200;16.332;2023-02-22T12:04:46;19.90;93.20
13880;DHT22;7010;48.200;16.332;2023-02-22T12:07:31;19.50;94.00
13880;DHT22;7010;48.200;16.332;2023-02-22T12:10:12;18.90;94.50
13880;DHT22;7010;48.200;16.332;2023-02-22T12:12:50;18.60;95.30
13880;DHT22;7010;48.200;16.332;2023-02-22T12:15:28;18.70;96.20
13880;DHT22;7010;48.200;16.332;2023-02-22T12:18:02;19.10;96.00
13880;DHT22;7010;48.200;16.332;2023-02-22T12:20:38;19.50;95.80
13880;DHT22;7010;48.200;16.332;2023-02-22T12:23:16;19.90;95.30
13880;DHT22;7010;48.200;16.332;2023-02-22T12:25:54;20.20;95.40
13880;DHT22;7010;48.200;16.332;2023-02-22T12:28:29;20.60;94.30
13880;DHT22;7010;48.200;16.332;2023-02-22T12:31:14;20.60;93.80
13880;DHT22;7010;48.200;16.332;2023-02-22T12:33:54;20.40;93.60
13880;DHT22;7010;48.200;16.332;2023-02-22T12:36:33;19.80;94.30
13880;DHT22;7010;48.200;16.332;2023-02-22T12:39:22;19.90;94.50
13880;DHT22;7010;48.200;16.332;2023-02-22T12:41:54;20.40;94.30
13880;DHT22;7010;48.200;16.332;2023-02-22T12:44:25;20.80;94.00
13880;DHT22;7010;48.200;16.332;2023-02-22T12:46:57;20.90;93.60
13880;DHT22;7010;48.200;16.332;2023-02-22T12:49:32;21.20;93.30
13880;DHT22;7010;48.200;16.332;2023-02-22T12:52:06;21.40;92.80
13880;DHT22;7010;48.200;16.332;2023-02-22T12:54:53;21.50;91.70
13880;DHT22;7010;48.200;16.332;2023-02-22T12:57:37;21.30;91.70
13880;DHT22;7010;48.200;16.332;2023-02-22T13:00:14;21.20;92.10
13880;DHT22;7010;48.200;16.332;2023-02-22T13:02:53;21.50;91.40
13880;DHT22;7010;48.200;16.332;2023-02-22T13:05:23;21.90;91.10
13880;DHT22;7010;48.200;16.332;2023-02-22T13:08:07;22.00;90.80
13880;DHT22;7010;48.200;16.332;2023-02-22T13:10:57;22.20;90.20
13880;DHT22;7010;48.200;16.332;2023-02-22T13:13:35;22.30;90.00
13880;DHT22;7010;48.200;16.332;2023-02-22T13:16:18;22.30;89.90
13880;DHT22;7010;48.200;16.332;2023-02-22T13:18:57;22.30;88.50
13880;DHT22;7010;48.200;16.332;2023-02-22T13:21:36;22.30;88.40
13880;DHT22;7010;48.200;16.332;2023-02-22T13:24:14;21.90;88.20
13880;DHT22;7010;48.200;16.332;2023-02-22T13:26:47;21.70;90.00
13880;DHT22;7010;48.200;16.332;2023-02-22T13:29:20;21.70;89.00
13880;DHT22;7010;48.200;16.332;2023-02-22T13:32:12;21.80;89.90
13880;DHT22;7010;48.200;16.332;2023-02-22T13:35:07;21.80;89.00
13880;DHT22;7010;48.200;16.332;2023-02-22T13:38:09;22.00;87.90
13880;DHT22;7010;48.200;16.332;2023-02-22T13:41:03;21.80;88.70
13880;DHT22;7010;48.200;16.332;2023-02-22T13:44:00;21.70;87.20
13880;DHT22;7010;48.200;16.332;2023-02-22T13:49:45;21.30;87.60
13880;DHT22;7010;48.200;16.332;2023-02-22T13:52:18;21.10;87.90
13880;DHT22;7010;48.200;16.332;2023-02-22T13:54:49;21.00;86.90
13880;DHT22;7010;48.200;16.332;2023-02-22T13:57:23;20.70;88.10
13880;DHT22;7010;48.200;16.332;2023-02-22T14:00:21;20.60;88.10
13880;DHT22;7010;48.200;16.332;2023-02-22T14:02:59;20.50;88.30
13880;DHT22;7010;48.200;16.332;2023-02-22T14:05:36;20.50;88.60
13880;DHT22;7010;48.200;16.332;2023-02-22T14:08:42;20.40;88.90
13880;DHT22;7010;48.200;16.332;2023-02-22T14:14:23;20.30;88.20
13880;DHT22;7010;48.200;16.332;2023-02-22T14:17:19;20.30;89.10
13880;DHT22;7010;48.200;16.332;2023-02-22T14:20:17;20.20;89.30
13880;DHT22;7010;48.200;16.332;2023-02-22T14:22:48;19.70;88.60
13880;DHT22;7010;48.200;16.332;2023-02-22T14:25:35;19.50;89.50
13880;DHT22;7010;48.200;16.332;2023-02-22T14:28:05;19.20;89.50
13880;DHT22;7010;48.200;16.332;2023-02-22T14:30:36;19.00;90.30
13880;DHT22;7010;48.200;16.332;2023-02-22T14:36:11;18.70;91.00
13880;DHT22;7010;48.200;16.332;2023-02-22T14:38:41;18.50;91.10
13880;DHT22;7010;48.200;16.332;2023-02-22T14:41:14;18.30;91.30
13880;DHT22;7010;48.200;16.332;2023-02-22T14:43:44;18.10;91.90
13880;DHT22;7010;48.200;16.332;2023-02-22T14:46:19;18.00;92.10
13880;DHT22;7010;48.200;16.332;2023-02-22T14:48:50;17.70;92.30
13880;DHT22;7010;48.200;16.332;2023-02-22T14:51:24;17.50;92.10
13880;DHT22;7010;48.200;16.332;2023-02-22T14:54:01;17.40;92.70
13880;DHT22;7010;48.200;16.332;2023-02-22T14:56:38;17.40;92.70
13880;DHT22;7010;48.200;16.332;2023-02-22T14:59:17;17.20;92.90
13880;DHT22;7010;48.200;16.332;2023-02-22T15:01:47;17.20;94.00
13880;DHT22;7010;48.200;16.332;2023-02-22T15:04:36;17.00;93.40
13880;DHT22;7010;48.200;16.332;2023-02-22T15:07:08;16.90;94.20
13880;DHT22;7010;48.200;16.332;2023-02-22T15:09:43;16.80;94.20
13880;DHT22;7010;48.200;16.332;2023-02-22T15:12:23;16.70;94.80
13880;DHT22;7010;48.200;16.332;2023-02-22T15:15:10;16.60;94.60
13880;DHT22;7010;48.200;16.332;2023-02-22T15:17:40;16.50;94.90
13880;DHT22;7010;48.200;16.332;2023-02-22T15:20:14;16.30;95.60
13880;DHT22;7010;48.200;16.332;2023-02-22T15:22:47;16.10;95.60
13880;DHT22;7010;48.200;16.332;2023-02-22T15:25:23;16.00;96.20
13880;DHT22;7010;48.200;16.332;2023-02-22T15:28:00;15.90;96.70
13880;DHT22;7010;48.200;16.332;2023-02-22T15:30:31;15.80;96.40
13880;DHT22;7010;48.200;16.332;2023-02-22T15:33:16;15.80;96.90
13880;DHT22;7010;48.200;16.332;2023-02-22T15:35:54;15.60;97.40
13880;DHT22;7010;48.200;16.332;2023-02-22T15:38:27;15.50;97.70
13880;DHT22;7010;48.200;16.332;2023-02-22T15:41:01;15.40;97.90
13880;DHT22;7010;48.200;16.332;2023-02-22T15:43:31;15.30;98.20
13880;DHT22;7010;48.200;16.332;2023-02-22T15:46:00;15.20;98.90
13880;DHT22;7010;48.200;16.332;2023-02-22T15:48:28;15.00;99.00
13880;DHT22;7010;48.200;16.332;2023-02-22T15:51:04;15.00;99.10
13880;DHT22;7010;48.200;16.332;2023-02-22T15:53:41;14.90;99.40
13880;DHT22;7010;48.200;16.332;2023-02-22T15:56:13;14.80;99.70
13880;DHT22;7010;48.200;16.332;2023-02-22T15:58:45;14.80;99.90
13880;DHT22;7010;48.200;16.332;2023-02-22T16:01:15;14.70;99.90
13880;DHT22;7010;48.200;16.332;2023-02-22T16:03:47;14.60;99.90
13880;DHT22;7010;48.200;16.332;2023-02-22T16:06:26;14.60;99.90
13880;DHT22;7010;48.200;16.332;2023-02-22T16:08:57;14.50;99.90
13880;DHT22;7010;48.200;16.332;2023-02-22T16:11:29;14.40;99.90
13880;DHT22;7010;48.200;16.332;2023-02-22T16:14:02;14.40;99.90
13880;DHT22;7010;48.200;16.332;2023-02-22T16:16:32;14.30;99.90
13880;DHT22;7010;48.200;16.332;2023-02-22T16:19:25;14.20;99.90